Hebron, New Hampshire
Current Conditions -  °F | °C
As of 11:35 AM on Friday 21 Nov 2014 (Local Time) from K1P1 Reporting Station
Broken Clouds Broken Clouds  
Wind Chill: 20°   Ceiling: 4500
Heat Index: 29°   Visibility: 10mi
Dew Point: 15°   Wind: 10mph
Humidity: 56%   Direction: 290°WNW
Pressure: 30.08"   Gusts: 26mph
Location:  43.69°N, 71.81°W
Report Text: K1P1 211635Z AUTO 29009G23KT 10SM BKN045 BKN050 M01/M09 A3008 RMK AO2 T10151093
Loading
Personal Weather Stations






























Interactive Weather Map New forecast layout! Learn more

10-Day Weather Forecast

Advertisements
Track Severe Weather on mobile